createdAt,value
2022-12-26T00:01:25.760Z,19.70
2022-12-26T00:03:55.817Z,20.00
2022-12-26T00:06:25.419Z,19.30
2022-12-26T00:08:53.888Z,19.50
2022-12-26T00:11:22.703Z,19.90
2022-12-26T00:13:55.259Z,20.10
2022-12-26T00:16:23.909Z,20.40
2022-12-26T00:18:52.197Z,20.50
2022-12-26T00:21:23.737Z,20.40
2022-12-26T00:23:51.723Z,20.50
2022-12-26T00:26:22.823Z,20.50
2022-12-26T00:28:51.760Z,20.30
2022-12-26T00:31:22.709Z,20.10
2022-12-26T00:33:51.006Z,20.20
2022-12-26T00:36:20.700Z,20.20
2022-12-26T00:38:52.663Z,20.30
2022-12-26T00:41:22.532Z,19.80
2022-12-26T00:43:51.109Z,19.90
2022-12-26T00:46:19.189Z,19.10
2022-12-26T00:48:47.234Z,19.00
2022-12-26T00:51:15.771Z,19.50
2022-12-26T00:53:43.811Z,19.50
2022-12-26T00:56:13.614Z,19.60
2022-12-26T00:58:42.028Z,19.20
2022-12-26T01:01:16.093Z,19.10
2022-12-26T01:03:46.112Z,19.10
2022-12-26T01:06:14.797Z,19.30
2022-12-26T01:08:43.202Z,19.50
2022-12-26T01:11:14.482Z,18.40
2022-12-26T01:13:43.663Z,18.80
2022-12-26T01:16:11.908Z,19.10
2022-12-26T01:18:39.867Z,18.20
2022-12-26T01:21:11.084Z,17.70
2022-12-26T01:23:39.059Z,18.50
2022-12-26T01:26:17.875Z,18.80
2022-12-26T01:28:50.391Z,18.50
2022-12-26T01:31:19.446Z,18.20
2022-12-26T01:33:47.595Z,18.60
2022-12-26T01:36:16.253Z,19.00
2022-12-26T01:38:44.200Z,19.10
2022-12-26T01:41:19.964Z,19.50
2022-12-26T01:43:56.751Z,19.30
2022-12-26T01:46:29.837Z,19.10
2022-12-26T01:49:00.654Z,19.00
2022-12-26T01:51:33.918Z,19.40
2022-12-26T01:54:41.174Z,19.60
2022-12-26T01:56:53.812Z,19.60
2022-12-26T01:59:27.929Z,19.70
2022-12-26T02:01:56.933Z,20.00
2022-12-26T02:04:46.923Z,20.10
2022-12-26T02:07:15.279Z,20.10
2022-12-26T02:09:43.739Z,20.10
2022-12-26T02:12:36.941Z,20.30
2022-12-26T02:15:08.617Z,20.50
2022-12-26T02:17:38.018Z,20.60
2022-12-26T02:20:18.065Z,20.50
2022-12-26T02:23:26.155Z,20.60
2022-12-26T02:26:31.142Z,20.40
2022-12-26T02:29:30.498Z,20.40
2022-12-26T02:32:08.632Z,20.50
2022-12-26T02:34:48.488Z,20.60
2022-12-26T02:37:35.493Z,20.60
2022-12-26T02:40:19.797Z,20.80
2022-12-26T02:42:59.212Z,20.80
2022-12-26T02:45:52.532Z,20.70
2022-12-26T02:48:32.713Z,20.80
2022-12-26T02:51:26.957Z,20.70
2022-12-26T02:54:19.514Z,20.70
2022-12-26T02:57:10.156Z,20.50
2022-12-26T03:00:05.205Z,19.50
2022-12-26T03:02:57.320Z,18.90
2022-12-26T03:05:49.228Z,19.20
2022-12-26T03:08:43.247Z,19.30
2022-12-26T03:11:29.501Z,18.60
2022-12-26T03:14:07.232Z,19.50
2022-12-26T03:16:53.177Z,19.10
2022-12-26T03:19:23.067Z,18.90
2022-12-26T03:21:53.812Z,19.60
2022-12-26T03:24:23.354Z,19.50
2022-12-26T03:26:54.280Z,18.90
2022-12-26T03:29:42.154Z,18.90
2022-12-26T03:32:12.372Z,19.00
2022-12-26T03:34:43.681Z,19.10
2022-12-26T03:37:48.793Z,18.40
2022-12-26T03:40:48.009Z,18.60
2022-12-26T03:43:40.902Z,17.80
2022-12-26T03:46:35.901Z,18.00
2022-12-26T03:49:26.629Z,17.80
2022-12-26T03:52:23.673Z,18.40
2022-12-26T03:55:15.554Z,18.70
2022-12-26T03:58:09.547Z,18.10
2022-12-26T04:00:56.076Z,18.50
2022-12-26T04:03:43.500Z,18.70
2022-12-26T04:06:36.975Z,18.50
2022-12-26T04:09:27.372Z,18.90
2022-12-26T04:12:16.310Z,19.10
2022-12-26T04:15:09.776Z,19.10
2022-12-26T04:18:00.150Z,18.30
2022-12-26T04:20:33.962Z,18.10
2022-12-26T04:23:24.331Z,18.70
2022-12-26T04:26:16.702Z,18.70
2022-12-26T04:29:03.262Z,18.50
2022-12-26T04:31:53.108Z,18.80
2022-12-26T04:34:44.846Z,19.20
2022-12-26T04:37:36.186Z,19.40
2022-12-26T04:40:23.153Z,19.60
2022-12-26T04:43:46.712Z,19.70
2022-12-26T04:45:58.229Z,19.60
2022-12-26T04:48:44.008Z,19.60
2022-12-26T04:51:11.945Z,19.80
2022-12-26T04:53:39.890Z,19.30
2022-12-26T04:56:08.275Z,19.00
2022-12-26T04:58:36.210Z,18.90
2022-12-26T05:01:19.549Z,18.40
2022-12-26T05:04:05.043Z,17.80
2022-12-26T05:06:50.526Z,18.10
2022-12-26T05:09:36.058Z,18.70
2022-12-26T05:12:04.822Z,18.80
2022-12-26T05:14:35.697Z,18.90
2022-12-26T05:17:22.789Z,18.80
2022-12-26T05:20:08.814Z,19.00
2022-12-26T05:22:57.688Z,19.10
2022-12-26T05:25:46.163Z,19.00
2022-12-26T05:28:33.321Z,18.90
2022-12-26T05:31:02.868Z,18.60
2022-12-26T05:33:49.688Z,18.50
2022-12-26T05:36:19.933Z,18.70
2022-12-26T05:38:48.222Z,18.70
2022-12-26T05:41:16.147Z,18.60
2022-12-26T05:43:44.058Z,18.50
2022-12-26T05:46:12.041Z,18.40
2022-12-26T05:48:41.418Z,18.50
2022-12-26T05:51:09.392Z,18.60
2022-12-26T05:53:37.469Z,18.80
2022-12-26T05:56:06.188Z,18.80
2022-12-26T05:58:36.328Z,18.40
2022-12-26T06:01:10.022Z,18.10
2022-12-26T06:03:38.501Z,18.40
2022-12-26T06:06:08.568Z,18.60
2022-12-26T06:08:37.076Z,18.50
2022-12-26T06:11:07.056Z,18.10
2022-12-26T06:13:35.468Z,17.90
2022-12-26T06:16:06.991Z,18.10
2022-12-26T06:18:35.302Z,18.50
2022-12-26T06:21:07.159Z,18.60
2022-12-26T06:23:35.856Z,18.80
2022-12-26T06:26:03.957Z,19.10
2022-12-26T06:28:32.580Z,19.10
2022-12-26T06:31:04.101Z,18.70
2022-12-26T06:33:33.881Z,18.80
2022-12-26T06:36:11.991Z,18.90
2022-12-26T06:38:39.999Z,19.10
2022-12-26T06:41:09.110Z,19.20
2022-12-26T06:43:37.535Z,19.10
2022-12-26T06:46:07.392Z,19.10
2022-12-26T06:48:39.225Z,19.20
2022-12-26T06:51:12.343Z,19.00
2022-12-26T06:53:40.717Z,19.00
2022-12-26T06:56:10.405Z,19.10
2022-12-26T06:58:38.821Z,19.20
2022-12-26T07:01:07.670Z,19.20
2022-12-26T07:03:36.688Z,19.30
2022-12-26T07:06:05.982Z,19.40
2022-12-26T07:08:35.724Z,19.30
2022-12-26T07:11:03.861Z,19.30
2022-12-26T07:13:32.103Z,19.30
2022-12-26T07:16:00.983Z,19.10
2022-12-26T07:18:34.889Z,19.20
2022-12-26T07:21:06.156Z,18.60
2022-12-26T07:23:35.586Z,18.80
2022-12-26T07:26:04.024Z,18.80
2022-12-26T07:28:35.294Z,18.70
2022-12-26T07:31:09.096Z,18.50
2022-12-26T07:33:37.089Z,18.80
2022-12-26T07:36:07.457Z,19.00
2022-12-26T07:38:36.688Z,18.70
2022-12-26T07:41:25.134Z,18.80
2022-12-26T07:43:53.160Z,19.10
2022-12-26T07:46:23.889Z,19.40
2022-12-26T07:48:51.923Z,19.70
2022-12-26T07:51:20.145Z,19.80
2022-12-26T07:53:49.435Z,20.10
2022-12-26T07:56:17.382Z,19.60
2022-12-26T07:58:48.850Z,19.80
2022-12-26T08:01:22.617Z,20.00
2022-12-26T08:03:51.451Z,20.10
2022-12-26T08:06:20.156Z,20.30
2022-12-26T08:08:51.343Z,20.40
2022-12-26T08:11:22.542Z,20.60
2022-12-26T08:13:51.060Z,20.80
2022-12-26T08:16:19.371Z,20.80
2022-12-26T08:18:47.308Z,20.90
2022-12-26T08:21:15.700Z,20.80
2022-12-26T08:23:43.707Z,20.90
2022-12-26T08:26:20.470Z,21.00
2022-12-26T08:28:48.550Z,21.00
2022-12-26T08:31:16.886Z,20.50
2022-12-26T08:33:44.893Z,20.40
2022-12-26T08:36:14.081Z,20.00
2022-12-26T08:38:42.166Z,19.70
2022-12-26T08:41:10.566Z,20.00
2022-12-26T08:46:29.751Z,20.70
2022-12-26T08:48:57.702Z,20.80
2022-12-26T08:51:26.717Z,20.80
2022-12-26T08:53:56.111Z,20.70
2022-12-26T08:56:25.649Z,21.10
2022-12-26T08:58:55.793Z,21.40
2022-12-26T09:01:25.804Z,21.60
2022-12-26T09:03:56.314Z,21.80
2022-12-26T09:06:25.147Z,21.90
2022-12-26T09:08:55.858Z,21.90
2022-12-26T09:11:26.837Z,22.00
2022-12-26T09:14:00.171Z,22.10
2022-12-26T09:16:35.608Z,22.30
2022-12-26T09:19:06.641Z,22.40
2022-12-26T09:21:36.978Z,22.50
2022-12-26T09:24:07.224Z,22.40
2022-12-26T09:26:35.380Z,22.60
2022-12-26T09:29:04.734Z,22.70
2022-12-26T09:31:36.051Z,22.60
2022-12-26T09:34:04.788Z,22.70
2022-12-26T09:36:41.895Z,22.80
2022-12-26T09:39:11.921Z,22.60
2022-12-26T09:41:54.971Z,22.40
2022-12-26T09:44:29.239Z,22.60
2022-12-26T09:47:08.628Z,22.70
2022-12-26T09:49:43.906Z,22.90
2022-12-26T09:52:18.521Z,23.00
2022-12-26T09:54:55.031Z,23.10
2022-12-26T09:57:28.536Z,23.30
2022-12-26T10:00:00.186Z,23.40
2022-12-26T10:02:28.938Z,23.50
2022-12-26T10:04:57.190Z,23.60
2022-12-26T10:07:31.714Z,23.70
2022-12-26T10:10:09.067Z,23.80
2022-12-26T10:12:47.522Z,23.90
2022-12-26T10:15:31.030Z,23.90
2022-12-26T10:18:13.282Z,23.90
2022-12-26T10:20:55.289Z,23.80
2022-12-26T10:23:33.347Z,23.80
2022-12-26T10:26:07.736Z,23.70
2022-12-26T10:28:41.960Z,23.70
2022-12-26T10:31:18.773Z,23.70
2022-12-26T10:33:50.598Z,23.70
2022-12-26T10:36:27.289Z,23.80
2022-12-26T10:38:58.428Z,23.90
2022-12-26T10:41:29.050Z,24.00
2022-12-26T10:43:56.983Z,24.00
2022-12-26T10:47:04.806Z,24.00
2022-12-26T10:49:33.110Z,24.10
2022-12-26T10:52:02.735Z,24.10
2022-12-26T10:54:31.814Z,24.00
2022-12-26T10:57:01.661Z,23.80
2022-12-26T10:59:39.715Z,23.70
2022-12-26T11:02:31.110Z,23.30
2022-12-26T11:05:27.200Z,23.40
2022-12-26T11:07:58.032Z,23.70
2022-12-26T11:10:30.148Z,23.80
2022-12-26T11:13:02.426Z,24.20
2022-12-26T11:15:38.499Z,24.20
2022-12-26T11:18:18.447Z,24.30
2022-12-26T11:20:47.158Z,24.50
2022-12-26T11:23:26.404Z,24.70
2022-12-26T11:25:56.156Z,24.90
2022-12-26T11:28:35.897Z,24.90
2022-12-26T11:31:07.159Z,24.90
2022-12-26T11:33:42.175Z,25.10
2022-12-26T11:36:12.424Z,24.90
2022-12-26T11:38:49.320Z,24.50
2022-12-26T11:41:32.778Z,25.10
2022-12-26T11:44:14.608Z,25.60
2022-12-26T11:46:46.505Z,26.00
2022-12-26T11:49:26.932Z,26.20
2022-12-26T11:51:59.119Z,26.40
2022-12-26T11:54:34.348Z,25.90
2022-12-26T11:57:16.159Z,25.20
2022-12-26T11:59:44.332Z,24.10
2022-12-26T12:02:37.129Z,23.70
2022-12-26T12:05:14.824Z,23.30
2022-12-26T12:08:02.059Z,22.70
2022-12-26T12:11:02.814Z,22.40
2022-12-26T12:13:51.040Z,21.80
2022-12-26T12:16:33.828Z,21.90
2022-12-26T12:19:08.819Z,21.20
2022-12-26T12:21:44.438Z,21.00
2022-12-26T12:24:34.170Z,21.10
2022-12-26T12:27:10.423Z,21.30
2022-12-26T12:30:04.563Z,21.70
2022-12-26T12:32:41.972Z,21.70
2022-12-26T12:35:47.315Z,21.70
2022-12-26T12:38:33.230Z,22.20
2022-12-26T12:41:25.467Z,21.80
2022-12-26T12:44:00.125Z,21.90
2022-12-26T12:46:37.225Z,21.60
2022-12-26T12:49:24.907Z,22.10
2022-12-26T12:52:01.219Z,21.90
2022-12-26T12:54:57.338Z,22.00
2022-12-26T12:57:34.432Z,21.80
2022-12-26T13:00:16.999Z,21.50
2022-12-26T13:02:52.210Z,21.20
2022-12-26T13:05:29.004Z,21.30
2022-12-26T13:08:02.185Z,21.90
2022-12-26T13:10:35.004Z,22.20
2022-12-26T13:13:19.321Z,22.00
2022-12-26T13:15:51.247Z,21.50
2022-12-26T13:18:23.787Z,21.20
2022-12-26T13:20:54.509Z,20.90
2022-12-26T13:23:46.854Z,20.80
2022-12-26T13:26:19.936Z,20.50
2022-12-26T13:28:56.492Z,20.60
2022-12-26T13:31:25.089Z,20.70
2022-12-26T13:33:53.870Z,20.40
2022-12-26T13:36:44.316Z,20.00
2022-12-26T13:39:39.848Z,19.80
2022-12-26T13:42:50.094Z,20.00
2022-12-26T13:45:58.387Z,20.20
2022-12-26T13:49:06.107Z,20.10
2022-12-26T13:51:49.028Z,20.50
2022-12-26T13:54:18.283Z,20.60
2022-12-26T13:57:05.096Z,20.50
2022-12-26T13:59:40.027Z,20.30
2022-12-26T14:03:16.676Z,20.00
2022-12-26T14:05:45.340Z,20.10
2022-12-26T14:08:24.207Z,19.90
2022-12-26T14:11:01.412Z,19.80
2022-12-26T14:13:49.457Z,19.80
2022-12-26T14:16:24.949Z,20.00
2022-12-26T14:19:02.257Z,20.40
2022-12-26T14:21:40.981Z,20.00
2022-12-26T14:24:23.823Z,20.40
2022-12-26T14:26:58.309Z,20.20
2022-12-26T14:29:31.837Z,20.30
2022-12-26T14:32:13.143Z,20.20
2022-12-26T14:34:54.726Z,20.60
2022-12-26T14:37:31.823Z,21.00
2022-12-26T14:40:26.640Z,21.00
2022-12-26T14:43:10.743Z,20.90
2022-12-26T14:45:43.179Z,20.70
2022-12-26T14:48:43.677Z,20.60
2022-12-26T14:51:45.210Z,20.70
2022-12-26T14:54:36.379Z,20.20
2022-12-26T14:57:37.401Z,20.30
2022-12-26T15:00:29.007Z,20.40
2022-12-26T15:03:35.747Z,20.20
2022-12-26T15:06:29.694Z,20.10
2022-12-26T15:09:11.765Z,20.00
2022-12-26T15:11:55.999Z,19.90
2022-12-26T15:14:50.025Z,19.90
2022-12-26T15:17:27.945Z,20.40
2022-12-26T15:20:27.221Z,20.60
2022-12-26T15:23:32.141Z,20.70
2022-12-26T15:26:41.959Z,21.10
2022-12-26T15:29:38.816Z,21.40
2022-12-26T15:32:14.295Z,21.10
2022-12-26T15:34:50.182Z,21.20
2022-12-26T15:37:39.032Z,21.30
2022-12-26T15:40:15.846Z,21.10
2022-12-26T15:42:55.265Z,20.90
2022-12-26T15:45:36.533Z,20.90
2022-12-26T15:48:11.557Z,21.60
2022-12-26T15:50:52.898Z,21.50
2022-12-26T15:53:32.839Z,21.80
2022-12-26T15:56:40.735Z,21.20
2022-12-26T15:59:44.244Z,20.50
2022-12-26T16:02:17.089Z,20.50
2022-12-26T16:04:50.536Z,20.20
2022-12-26T16:07:29.561Z,20.50
2022-12-26T16:10:00.663Z,20.30
2022-12-26T16:12:34.016Z,21.00
2022-12-26T16:15:14.512Z,21.10
2022-12-26T16:17:44.020Z,20.90
2022-12-26T16:20:41.247Z,20.90
2022-12-26T16:23:14.497Z,20.90
2022-12-26T16:25:47.648Z,21.10
2022-12-26T16:28:17.603Z,20.70
2022-12-26T16:30:45.710Z,20.60
2022-12-26T16:33:15.378Z,21.00
2022-12-26T16:35:44.216Z,21.20
2022-12-26T16:38:16.008Z,21.20
2022-12-26T16:40:45.909Z,21.10
2022-12-26T16:43:28.277Z,21.10
2022-12-26T16:46:00.380Z,20.80
2022-12-26T16:48:31.102Z,20.30
2022-12-26T16:51:01.255Z,20.50
2022-12-26T16:53:44.548Z,20.90
2022-12-26T16:56:25.236Z,20.60
2022-12-26T16:59:04.484Z,21.10
2022-12-26T17:01:34.463Z,21.00
2022-12-26T17:04:06.862Z,21.20
2022-12-26T17:06:37.794Z,20.80
2022-12-26T17:09:09.982Z,20.80
2022-12-26T17:11:46.702Z,20.10
2022-12-26T17:14:21.989Z,20.00
2022-12-26T17:16:58.429Z,19.90
2022-12-26T17:19:29.645Z,20.20
2022-12-26T17:22:29.768Z,20.30
2022-12-26T17:25:22.060Z,21.30
2022-12-26T17:28:10.839Z,21.00
2022-12-26T17:30:42.136Z,21.60
2022-12-26T17:33:14.014Z,21.20
2022-12-26T17:36:38.294Z,21.40
2022-12-26T17:38:32.433Z,22.10
2022-12-26T17:41:04.038Z,22.70
2022-12-26T17:43:36.225Z,22.40
2022-12-26T17:46:07.191Z,21.80
2022-12-26T17:48:35.859Z,22.10
2022-12-26T17:51:06.123Z,22.00
2022-12-26T17:53:36.148Z,22.20
2022-12-26T17:56:06.088Z,22.00
2022-12-26T17:58:34.523Z,21.20
2022-12-26T18:01:03.088Z,20.70
2022-12-26T18:03:32.494Z,20.60
2022-12-26T18:06:00.512Z,20.70
2022-12-26T18:08:32.304Z,20.90
2022-12-26T18:11:05.635Z,20.90
2022-12-26T18:13:33.990Z,21.20
2022-12-26T18:16:06.015Z,20.50
2022-12-26T18:18:38.466Z,20.80
2022-12-26T18:21:08.735Z,20.60
2022-12-26T18:23:37.519Z,20.60
2022-12-26T18:26:08.997Z,20.00
2022-12-26T18:28:37.342Z,19.50
2022-12-26T18:31:05.623Z,19.10
2022-12-26T18:33:35.209Z,19.30
2022-12-26T18:36:07.439Z,19.30
2022-12-26T18:38:35.833Z,18.90
2022-12-26T18:41:03.835Z,19.10
2022-12-26T18:43:32.084Z,20.00
2022-12-26T18:46:02.910Z,20.10
2022-12-26T18:48:30.893Z,20.50
2022-12-26T18:51:00.191Z,20.90
2022-12-26T18:53:28.163Z,20.80
2022-12-26T18:55:58.867Z,20.40
2022-12-26T18:58:26.843Z,20.40
2022-12-26T19:00:55.039Z,20.80
2022-12-26T19:03:23.052Z,20.70
2022-12-26T19:05:50.976Z,21.40
2022-12-26T19:08:20.261Z,21.00
2022-12-26T19:10:48.306Z,21.20
2022-12-26T19:13:16.936Z,20.80
2022-12-26T19:15:47.515Z,20.80
2022-12-26T19:18:18.421Z,20.90
2022-12-26T19:20:46.386Z,20.10
2022-12-26T19:23:15.055Z,19.90
2022-12-26T19:25:44.605Z,19.80
2022-12-26T19:28:12.540Z,19.80
2022-12-26T19:30:40.832Z,19.50
2022-12-26T19:33:10.238Z,19.20
2022-12-26T19:35:38.332Z,19.00
2022-12-26T19:38:06.246Z,18.80
2022-12-26T19:40:34.185Z,18.80
2022-12-26T19:43:03.808Z,18.20
2022-12-26T19:45:31.875Z,17.90
2022-12-26T19:48:00.883Z,18.40
2022-12-26T19:50:31.649Z,18.00
2022-12-26T19:53:02.820Z,17.90
2022-12-26T19:55:30.875Z,17.80
2022-12-26T19:57:58.865Z,17.70
2022-12-26T20:00:28.604Z,18.20
2022-12-26T20:02:56.607Z,18.20
2022-12-26T20:05:24.608Z,18.60
2022-12-26T20:07:54.869Z,18.50
2022-12-26T20:10:23.044Z,18.50
2022-12-26T20:12:53.748Z,18.60
2022-12-26T20:15:21.779Z,18.10
2022-12-26T20:18:01.683Z,17.70
2022-12-26T20:20:29.895Z,17.70
2022-12-26T20:22:57.840Z,17.80
2022-12-26T20:25:27.605Z,17.40
2022-12-26T20:27:55.766Z,17.50
2022-12-26T20:30:25.771Z,17.60
2022-12-26T20:32:56.115Z,17.60
2022-12-26T20:35:24.010Z,17.90
2022-12-26T20:37:53.829Z,18.10
2022-12-26T20:40:21.782Z,17.60
2022-12-26T20:42:49.753Z,17.60
2022-12-26T20:45:19.161Z,17.30
2022-12-26T20:47:47.195Z,17.40
2022-12-26T20:50:17.490Z,17.40
2022-12-26T20:52:45.438Z,17.10
2022-12-26T20:55:16.175Z,17.00
2022-12-26T20:57:45.659Z,17.30
2022-12-26T21:00:15.063Z,17.90
2022-12-26T21:02:43.150Z,17.80
2022-12-26T21:05:11.252Z,17.70
2022-12-26T21:07:40.599Z,17.90
2022-12-26T21:10:10.023Z,17.80
2022-12-26T21:12:38.241Z,17.50
2022-12-26T21:15:10.747Z,17.30
2022-12-26T21:17:38.688Z,17.40
2022-12-26T21:20:08.589Z,17.30
2022-12-26T21:22:36.788Z,17.60
2022-12-26T21:25:07.012Z,17.50
2022-12-26T21:27:39.172Z,17.80
2022-12-26T21:30:10.232Z,17.90
2022-12-26T21:32:39.224Z,17.70
2022-12-26T21:35:08.461Z,17.40
2022-12-26T21:37:52.437Z,17.60
2022-12-26T21:40:24.285Z,17.80
2022-12-26T21:42:52.212Z,17.40
2022-12-26T21:45:20.659Z,17.90
2022-12-26T21:47:48.547Z,17.90
2022-12-26T21:50:16.601Z,18.10
2022-12-26T21:52:44.551Z,18.00
2022-12-26T21:55:26.909Z,18.10
2022-12-26T21:57:56.644Z,17.90
2022-12-26T22:00:24.846Z,18.00
2022-12-26T22:03:10.241Z,18.00
2022-12-26T22:05:42.619Z,18.20
2022-12-26T22:08:12.250Z,19.20
2022-12-26T22:11:01.259Z,19.20
2022-12-26T22:13:32.589Z,20.00
2022-12-26T22:16:07.433Z,20.10
2022-12-26T22:18:38.333Z,20.10
2022-12-26T22:21:09.373Z,20.20
2022-12-26T22:23:37.916Z,19.90
2022-12-26T22:26:06.558Z,20.30
2022-12-26T22:28:36.133Z,19.80
2022-12-26T22:31:04.118Z,19.50
2022-12-26T22:33:32.794Z,19.90
2022-12-26T22:36:06.107Z,20.00
2022-12-26T22:38:34.382Z,20.30
2022-12-26T22:41:02.448Z,21.00
2022-12-26T22:43:31.627Z,21.40
2022-12-26T22:46:00.924Z,21.70
2022-12-26T22:48:28.849Z,21.30
2022-12-26T22:50:57.284Z,20.90
2022-12-26T22:53:26.272Z,20.80
2022-12-26T22:55:58.893Z,19.90
2022-12-26T22:58:27.517Z,20.10
2022-12-26T23:00:55.462Z,20.60
2022-12-26T23:03:25.489Z,19.90
2022-12-26T23:05:54.331Z,19.60
2022-12-26T23:08:28.126Z,19.70
2022-12-26T23:11:00.036Z,19.50
2022-12-26T23:13:28.529Z,19.80
2022-12-26T23:16:01.624Z,20.30
2022-12-26T23:18:56.177Z,20.60
2022-12-26T23:21:43.063Z,20.60
2022-12-26T23:24:15.318Z,20.30
2022-12-26T23:26:45.165Z,20.60
2022-12-26T23:29:31.305Z,21.00
2022-12-26T23:31:59.328Z,20.80
2022-12-26T23:34:29.357Z,21.40
2022-12-26T23:36:57.578Z,21.20
2022-12-26T23:39:25.500Z,21.50
2022-12-26T23:41:53.674Z,21.50
2022-12-26T23:44:21.676Z,21.50
2022-12-26T23:46:51.126Z,21.30
2022-12-26T23:49:22.075Z,22.00
2022-12-26T23:51:51.336Z,22.40
2022-12-26T23:54:19.271Z,23.00
2022-12-26T23:56:47.336Z,23.00
2022-12-26T23:59:15.260Z,23.10
